createdAt,value
2024-05-09T00:01:58.197Z,101225.71
2024-05-09T00:07:00.846Z,101227.50
2024-05-09T00:12:03.888Z,101227.71
2024-05-09T00:17:06.874Z,101233.20
2024-05-09T00:22:09.188Z,101229.67
2024-05-09T00:27:13.320Z,101223.43
2024-05-09T00:32:16.249Z,101219.76
2024-05-09T00:37:19.072Z,101215.49
2024-05-09T00:42:21.802Z,101214.49
2024-05-09T00:47:24.544Z,101218.73
2024-05-09T00:52:28.666Z,101224.00
2024-05-09T00:57:30.858Z,101227.44
2024-05-09T01:02:33.271Z,101227.95
2024-05-09T01:07:35.665Z,101223.08
2024-05-09T01:12:38.059Z,101224.75
2024-05-09T01:17:41.204Z,101218.42
2024-05-09T01:22:44.337Z,101219.55
2024-05-09T01:27:47.043Z,101225.87
2024-05-09T01:32:49.746Z,101231.01
2024-05-09T01:37:52.889Z,101228.52
2024-05-09T01:42:57.012Z,101228.09
2024-05-09T01:47:59.752Z,101224.38
2024-05-09T01:53:02.571Z,101225.70
2024-05-09T01:58:04.949Z,101221.06
2024-05-09T02:03:09.448Z,101216.19
2024-05-09T02:08:30.147Z,101218.35
2024-05-09T02:13:32.503Z,101228.75
2024-05-09T02:18:34.811Z,101233.20
2024-05-09T02:23:37.169Z,101232.07
2024-05-09T02:28:39.536Z,101227.77
2024-05-09T02:33:41.915Z,101228.67
2024-05-09T02:38:44.398Z,101226.73
2024-05-09T02:43:48.054Z,101227.88
2024-05-09T02:48:50.397Z,101229.00
2024-05-09T02:53:52.625Z,101229.38
2024-05-09T02:58:56.322Z,101230.88
2024-05-09T03:03:58.751Z,101233.62
2024-05-09T03:09:01.052Z,101237.08
2024-05-09T03:14:03.376Z,101239.35
2024-05-09T03:19:05.672Z,101241.44
2024-05-09T03:24:08.202Z,101245.91
2024-05-09T03:29:10.464Z,101249.52
2024-05-09T03:34:12.718Z,101252.46
2024-05-09T03:39:15.042Z,101245.59
2024-05-09T03:44:17.958Z,101241.09
2024-05-09T03:49:22.240Z,101237.41
2024-05-09T03:54:25.404Z,101242.28
2024-05-09T03:59:27.919Z,101242.60
2024-05-09T04:04:30.263Z,101240.11
2024-05-09T04:09:32.612Z,101241.16
2024-05-09T04:14:35.107Z,101242.27
2024-05-09T04:19:37.359Z,101243.60
2024-05-09T04:24:39.592Z,101246.19
2024-05-09T04:29:41.834Z,101242.38
2024-05-09T04:34:44.053Z,101240.58
2024-05-09T04:39:46.439Z,101241.34
2024-05-09T04:44:49.257Z,101246.25
2024-05-09T04:49:51.564Z,101247.39
2024-05-09T04:54:54.809Z,101243.55
2024-05-09T05:00:00.811Z,101242.76
2024-05-09T05:05:03.468Z,101246.50
2024-05-09T05:10:09.433Z,101251.27
2024-05-09T05:15:14.240Z,101247.98
2024-05-09T05:20:24.452Z,101247.34
2024-05-09T05:25:33.311Z,101251.98
2024-05-09T05:30:37.430Z,101253.45
2024-05-09T05:35:40.546Z,101250.69
2024-05-09T05:40:42.919Z,101254.06
2024-05-09T05:45:46.073Z,101247.73
2024-05-09T05:50:48.465Z,101245.88
2024-05-09T05:55:50.957Z,101248.65
2024-05-09T06:00:53.427Z,101254.41
2024-05-09T06:05:55.774Z,101252.74
2024-05-09T06:10:58.076Z,101256.24
2024-05-09T06:16:02.053Z,101254.73
2024-05-09T06:21:04.517Z,101261.95
2024-05-09T06:26:06.843Z,101262.92
2024-05-09T06:31:09.545Z,101259.14
2024-05-09T06:36:11.881Z,101257.30
2024-05-09T06:41:14.292Z,101250.40
2024-05-09T06:46:17.523Z,101243.83
2024-05-09T06:51:19.761Z,101239.30
2024-05-09T06:56:22.149Z,101237.00
2024-05-09T07:01:24.575Z,101227.80
2024-05-09T07:06:27.988Z,101225.38
2024-05-09T07:11:31.134Z,101220.39
2024-05-09T07:16:33.478Z,101226.05
2024-05-09T07:21:35.810Z,101223.89
2024-05-09T07:26:38.294Z,101214.81
2024-05-09T07:31:40.799Z,101206.77
2024-05-09T07:36:43.186Z,101205.18
2024-05-09T07:41:45.660Z,101204.92
2024-05-09T07:47:48.836Z,101200.11
2024-05-09T07:53:29.325Z,101195.53
2024-05-09T07:57:35.606Z,101198.13
2024-05-09T08:02:37.912Z,101196.66
2024-05-09T08:07:40.173Z,101193.59
2024-05-09T08:12:42.598Z,101194.35
2024-05-09T08:17:44.966Z,101195.44
2024-05-09T08:22:47.431Z,101198.21
2024-05-09T08:27:49.684Z,101192.33
2024-05-09T08:32:52.024Z,101195.23
2024-05-09T08:37:54.375Z,101193.05
2024-05-09T08:43:01.338Z,101186.41
2024-05-09T08:48:08.564Z,101181.52
2024-05-09T08:53:11.142Z,101177.38
2024-05-09T08:58:20.480Z,101172.04
2024-05-09T09:03:29.256Z,101165.77
2024-05-09T09:08:32.049Z,101170.09
2024-05-09T09:13:34.323Z,101162.75
2024-05-09T09:18:36.822Z,101158.22
2024-05-09T09:23:41.128Z,101158.97
2024-05-09T09:28:44.623Z,101158.21
2024-05-09T09:33:47.063Z,101152.33
2024-05-09T09:38:51.472Z,101152.54
2024-05-09T09:43:56.850Z,101144.65
2024-05-09T09:49:00.442Z,101143.42
2024-05-09T09:54:05.622Z,101134.24
2024-05-09T09:59:09.355Z,101126.95
2024-05-09T10:04:15.401Z,101125.13
2024-05-09T10:09:18.342Z,101124.71
2024-05-09T10:14:21.644Z,101121.30
2024-05-09T10:19:27.763Z,101119.02
2024-05-09T10:24:49.705Z,101109.70
2024-05-09T10:29:53.387Z,101106.20
2024-05-09T10:35:06.432Z,101102.45
2024-05-09T10:45:19.938Z,101097.31
2024-05-09T10:50:28.680Z,101098.08
2024-05-09T10:55:34.268Z,101094.40
2024-05-09T11:00:37.067Z,101087.31
2024-05-09T11:05:42.042Z,101085.82
2024-05-09T11:10:45.399Z,101081.70
2024-05-09T11:15:49.255Z,101071.42
2024-05-09T11:20:52.718Z,101065.46
2024-05-09T11:25:56.932Z,101057.49
2024-05-09T11:31:07.087Z,101052.44
2024-05-09T11:36:10.631Z,101052.30
2024-05-09T11:41:19.022Z,101045.23
2024-05-09T11:46:21.741Z,101044.27
2024-05-09T11:51:24.647Z,101037.38
2024-05-09T11:56:26.936Z,101030.85
2024-05-09T12:01:29.409Z,101027.68
2024-05-09T12:06:32.880Z,101025.20
2024-05-09T12:11:35.203Z,101018.26
2024-05-09T12:16:37.535Z,101012.87
2024-05-09T12:21:40.026Z,101011.30
2024-05-09T12:26:42.410Z,101006.44
2024-05-09T12:31:44.627Z,101004.17
2024-05-09T12:36:46.929Z,101000.05
2024-05-09T12:41:49.451Z,100996.60
2024-05-09T12:46:51.761Z,100994.35
2024-05-09T12:51:54.601Z,100986.94
2024-05-09T12:56:56.927Z,100985.55
2024-05-09T13:02:01.025Z,100982.17
2024-05-09T13:07:07.792Z,100973.36
2024-05-09T13:12:11.312Z,100973.27
2024-05-09T13:17:13.571Z,100967.40
2024-05-09T13:22:15.922Z,100965.69
2024-05-09T13:27:18.193Z,100963.83
2024-05-09T13:32:20.640Z,100958.60
2024-05-09T13:37:23.101Z,100950.23
2024-05-09T13:42:25.464Z,100943.75
2024-05-09T13:47:28.130Z,100945.54
2024-05-09T13:52:31.761Z,100941.30
2024-05-09T13:57:34.242Z,100934.75
2024-05-09T14:02:36.757Z,100928.57
2024-05-09T14:07:39.483Z,100928.40
2024-05-09T14:12:42.012Z,100920.77
2024-05-09T14:17:44.367Z,100915.16
2024-05-09T14:22:46.584Z,100912.78
2024-05-09T14:27:48.845Z,100902.14
2024-05-09T14:32:51.220Z,100895.94
2024-05-09T14:37:53.482Z,100892.23
2024-05-09T14:43:01.114Z,100887.13
2024-05-09T14:48:07.538Z,100878.20
2024-05-09T14:53:12.685Z,100869.69
2024-05-09T14:58:15.670Z,100864.77
2024-05-09T15:03:19.723Z,100855.37
2024-05-09T15:08:22.884Z,100849.61
2024-05-09T15:13:25.327Z,100843.09
2024-05-09T15:18:29.117Z,100836.88
2024-05-09T15:23:31.530Z,100832.11
2024-05-09T15:28:33.741Z,100827.23
2024-05-09T15:33:36.224Z,100826.33
2024-05-09T15:38:39.074Z,100825.34
2024-05-09T15:43:41.274Z,100824.20
2024-05-09T15:48:44.867Z,100823.35
2024-05-09T15:53:48.040Z,100817.65
2024-05-09T15:58:50.349Z,100811.77
2024-05-09T16:03:52.813Z,100807.29
2024-05-09T16:08:56.465Z,100804.88
2024-05-09T16:13:58.815Z,100804.65
2024-05-09T16:19:01.568Z,100800.98
2024-05-09T16:24:04.023Z,100797.23
2024-05-09T16:29:06.671Z,100787.79
2024-05-09T16:34:09.649Z,100783.46
2024-05-09T16:39:12.266Z,100779.23
2024-05-09T16:44:14.474Z,100775.79
2024-05-09T16:49:16.846Z,100775.55
2024-05-09T16:54:19.699Z,100774.46
2024-05-09T16:59:22.241Z,100770.46
2024-05-09T17:04:26.309Z,100767.03
2024-05-09T17:09:28.672Z,100766.27
2024-05-09T17:14:30.865Z,100763.23
2024-05-09T17:19:33.241Z,100755.42
2024-05-09T17:24:36.540Z,100754.80
2024-05-09T17:29:39.995Z,100752.92
2024-05-09T17:34:42.721Z,100751.78
2024-05-09T17:39:45.085Z,100744.29
2024-05-09T17:44:47.778Z,100736.98
2024-05-09T17:49:50.270Z,100738.84
2024-05-09T17:54:53.092Z,100739.60
2024-05-09T17:59:55.416Z,100735.98
2024-05-09T18:04:57.815Z,100735.54
2024-05-09T18:10:01.380Z,100734.52
2024-05-09T18:15:04.791Z,100736.01
2024-05-09T18:20:09.174Z,100740.56
2024-05-09T18:25:14.708Z,100745.20
2024-05-09T18:30:27.315Z,100740.67
2024-05-09T18:35:33.886Z,100745.95
2024-05-09T18:40:38.505Z,100746.52
2024-05-09T18:45:42.617Z,100744.83
2024-05-09T18:50:44.959Z,100742.45
2024-05-09T18:55:48.831Z,100744.14
2024-05-09T19:00:54.019Z,100745.05
2024-05-09T19:05:57.811Z,100743.68
2024-05-09T19:11:01.463Z,100742.81
2024-05-09T19:16:04.045Z,100745.85
2024-05-09T19:21:06.268Z,100744.57
2024-05-09T19:26:09.524Z,100745.30
2024-05-09T19:31:11.813Z,100743.52
2024-05-09T19:36:14.075Z,100746.88
2024-05-09T19:41:17.459Z,100745.19
2024-05-09T19:46:19.903Z,100741.61
2024-05-09T19:51:22.303Z,100744.23
2024-05-09T19:56:24.979Z,100739.13
2024-05-09T20:01:27.303Z,100740.11
2024-05-09T20:06:30.367Z,100736.39
2024-05-09T20:11:33.035Z,100735.12
2024-05-09T20:16:36.112Z,100736.60
2024-05-09T20:21:42.881Z,100735.41
2024-05-09T20:26:45.344Z,100740.27
2024-05-09T20:31:47.573Z,100736.58
2024-05-09T20:36:49.985Z,100733.73
2024-05-09T20:41:55.431Z,100733.94
2024-05-09T20:46:57.700Z,100733.11
2024-05-09T20:52:00.036Z,100726.84
2024-05-09T20:57:03.562Z,100725.71
2024-05-09T21:02:06.356Z,100731.73
2024-05-09T21:07:10.010Z,100734.50
2024-05-09T21:12:12.442Z,100731.52
2024-05-09T21:17:14.795Z,100732.75
2024-05-09T21:22:17.196Z,100733.14
2024-05-09T21:27:22.101Z,100738.61
2024-05-09T21:32:24.397Z,100729.86
2024-05-09T21:37:27.092Z,100730.98
2024-05-09T21:42:29.291Z,100732.65
2024-05-09T21:47:35.304Z,100733.15
2024-05-09T21:52:37.845Z,100730.70
2024-05-09T21:57:41.721Z,100738.71
2024-05-09T22:02:44.152Z,100741.81
2024-05-09T22:07:46.698Z,100733.77
2024-05-09T22:12:49.239Z,100730.16
2024-05-09T22:17:51.553Z,100730.11
2024-05-09T22:22:54.185Z,100728.58
2024-05-09T22:27:56.452Z,100721.26
2024-05-09T22:32:58.758Z,100723.69
2024-05-09T22:38:04.626Z,100715.95
2024-05-09T22:43:06.973Z,100710.99
2024-05-09T22:48:09.640Z,100708.38
2024-05-09T22:53:12.174Z,100702.81
2024-05-09T22:58:15.304Z,100702.39
2024-05-09T23:03:20.432Z,100699.90
2024-05-09T23:08:22.776Z,100699.86
2024-05-09T23:13:24.978Z,100697.95
2024-05-09T23:18:27.378Z,100694.04
2024-05-09T23:23:29.592Z,100691.32
2024-05-09T23:28:32.008Z,100686.21
2024-05-09T23:33:34.778Z,100683.88
2024-05-09T23:38:39.323Z,100680.55
2024-05-09T23:43:41.556Z,100676.71
2024-05-09T23:48:43.841Z,100673.63
2024-05-09T23:53:46.269Z,100671.15
2024-05-09T23:58:49.433Z,100664.23
